Woodburn, Mississippi
Current Conditions -  °F | °C
As of 10:53 AM on Thursday 23 Oct 2014 (Local Time) from KGLH Reporting Station
Clear Clear  
Wind Chill: 14°   Ceiling: Unl
Heat Index: 14°   Visibility: 10mi
Dew Point:   Wind: 3mph
Humidity: 67%   Direction: NA
Pressure: 30.19"   Gusts: NA
Location:  33.4825°N, 90.6856°W
Report Text: KGLH 231553Z AUTO VRB03KT 10SM CLR 14/08 A3019 RMK AO2 SLP230 T01440083
Loading
Personal Weather Stations






























Interactive Weather Map
Tropical Storm Tracking
New forecast layout! Learn more

10-Day Weather Forecast

Advertisements
Track Severe Weather on mobile